Memphis, Mississippi
Current Conditions -  °F | °C
As of 10:54 AM on Thursday 27 Nov 2014 (Local Time) from KMEM Reporting Station
Broken Clouds Broken Clouds  
Wind Chill: 39°   Ceiling: 3300
Heat Index: 44°   Visibility: 10mi
Dew Point: 29°   Wind: 10mph
Humidity: 55%   Direction: 10°N
Pressure: 30.5"   Gusts: NA
Location:  34.9578°N, 90.1057°W
Report Text: KMEM 271654Z 01009KT 10SM BKN033 BKN250 07/M02 A3050 RMK AO2 SLP329 T00671017 $
Loading
Personal Weather Stations






























Interactive Weather Map New forecast layout! Learn more

10-Day Weather Forecast

Advertisements
Track Severe Weather on mobile